createdAt,value
2023-11-05T00:02:01.773Z,0.50
2023-11-05T00:04:28.349Z,0.35
2023-11-05T00:06:54.903Z,0.30
2023-11-05T00:09:21.439Z,0.40
2023-11-05T00:11:47.958Z,0.40
2023-11-05T00:14:14.542Z,0.60
2023-11-05T00:16:41.109Z,0.50
2023-11-05T00:19:08.964Z,0.40
2023-11-05T00:21:35.998Z,0.30
2023-11-05T00:24:02.826Z,0.50
2023-11-05T00:26:29.389Z,0.50
2023-11-05T00:28:55.903Z,0.50
2023-11-05T00:31:22.801Z,0.50
2023-11-05T00:33:49.798Z,0.50
2023-11-05T00:36:16.518Z,0.50
2023-11-05T00:38:43.080Z,0.40
2023-11-05T00:41:09.627Z,0.50
2023-11-05T00:43:36.442Z,0.50
2023-11-05T00:46:03.183Z,0.40
2023-11-05T00:48:29.751Z,0.40
2023-11-05T00:50:56.302Z,0.50
2023-11-05T00:53:23.064Z,0.50
2023-11-05T00:55:49.716Z,0.30
2023-11-05T00:58:16.280Z,0.38
2023-11-05T01:00:42.936Z,0.35
2023-11-05T01:03:09.753Z,0.38
2023-11-05T01:05:36.354Z,0.30
2023-11-05T01:08:02.918Z,0.40
2023-11-05T01:10:29.581Z,0.50
2023-11-05T01:12:57.322Z,0.30
2023-11-05T01:15:23.903Z,0.32
2023-11-05T01:17:50.551Z,0.30
2023-11-05T01:20:17.241Z,0.47
2023-11-05T01:22:43.814Z,0.43
2023-11-05T01:25:10.888Z,0.40
2023-11-05T01:27:37.761Z,0.55
2023-11-05T01:30:04.577Z,0.40
2023-11-05T01:32:31.797Z,0.40
2023-11-05T01:35:00.225Z,0.30
2023-11-05T01:37:26.934Z,0.47
2023-11-05T01:39:53.503Z,0.50
2023-11-05T01:42:20.053Z,0.47
2023-11-05T01:44:46.635Z,0.40
2023-11-05T01:47:13.226Z,0.68
2023-11-05T01:49:39.875Z,0.50
2023-11-05T01:52:08.003Z,0.60
2023-11-05T01:54:34.673Z,0.43
2023-11-05T01:57:01.325Z,0.40
2023-11-05T01:59:27.976Z,0.40
2023-11-05T02:01:55.044Z,0.40
2023-11-05T02:04:21.973Z,0.50
2023-11-05T02:06:48.584Z,0.57
2023-11-05T02:09:15.631Z,0.40
2023-11-05T02:11:42.199Z,0.40
2023-11-05T02:14:14.286Z,0.50
2023-11-05T02:16:41.362Z,0.30
2023-11-05T02:19:08.202Z,0.50
2023-11-05T02:21:36.239Z,0.30
2023-11-05T02:24:03.349Z,0.32
2023-11-05T02:26:29.911Z,0.40
2023-11-05T02:28:58.569Z,0.20
2023-11-05T02:31:25.131Z,0.40
2023-11-05T02:33:52.011Z,0.50
2023-11-05T02:36:19.463Z,0.40
2023-11-05T02:38:46.060Z,0.50
2023-11-05T02:41:13.305Z,0.80
2023-11-05T02:43:40.609Z,0.50
2023-11-05T02:46:07.371Z,0.35
2023-11-05T02:48:34.526Z,0.45
2023-11-05T02:51:01.613Z,0.50
2023-11-05T02:53:28.332Z,0.50
2023-11-05T02:55:54.938Z,0.50
2023-11-05T02:58:21.596Z,0.50
2023-11-05T03:00:48.357Z,0.40
2023-11-05T03:03:15.306Z,0.40
2023-11-05T03:05:42.852Z,0.30
2023-11-05T03:08:10.069Z,0.50
2023-11-05T03:10:36.712Z,0.43
2023-11-05T03:13:03.890Z,0.30
2023-11-05T03:15:30.812Z,0.40
2023-11-05T03:17:57.487Z,0.40
2023-11-05T03:20:24.052Z,0.40
2023-11-05T03:22:50.645Z,0.30
2023-11-05T03:25:17.224Z,0.30
2023-11-05T03:27:43.777Z,0.30
2023-11-05T03:30:10.559Z,0.30
2023-11-05T03:32:37.534Z,0.30
2023-11-05T03:35:05.909Z,0.30
2023-11-05T03:37:32.605Z,0.22
2023-11-05T03:39:59.159Z,0.22
2023-11-05T03:42:26.352Z,0.20
2023-11-05T03:44:53.022Z,0.30
2023-11-05T03:47:19.556Z,0.30
2023-11-05T03:49:46.089Z,0.10
2023-11-05T03:52:12.682Z,0.28
2023-11-05T03:54:39.629Z,0.30
2023-11-05T03:57:06.233Z,0.20
2023-11-05T03:59:33.028Z,0.10
2023-11-05T04:01:59.925Z,0.17
2023-11-05T04:04:28.020Z,0.20
2023-11-05T04:06:54.582Z,0.22
2023-11-05T04:09:21.141Z,0.20
2023-11-05T04:11:47.771Z,0.30
2023-11-05T04:14:14.316Z,0.20
2023-11-05T04:16:40.920Z,0.20
2023-11-05T04:19:11.055Z,0.20
2023-11-05T04:21:37.585Z,0.17
2023-11-05T04:24:04.281Z,0.10
2023-11-05T04:26:30.820Z,0.10
2023-11-05T04:28:57.345Z,0.10
2023-11-05T04:31:23.927Z,0.10
2023-11-05T04:33:51.814Z,0.10
2023-11-05T04:36:18.415Z,0.20
2023-11-05T04:38:44.977Z,0.20
2023-11-05T04:41:11.528Z,0.20
2023-11-05T04:43:38.096Z,0.15
2023-11-05T04:46:04.792Z,0.10
2023-11-05T04:48:31.415Z,0.10
2023-11-05T04:50:58.245Z,0.10
2023-11-05T04:53:24.742Z,0.20
2023-11-05T04:55:51.306Z,0.10
2023-11-05T04:58:17.911Z,0.13
2023-11-05T05:00:44.453Z,0.20
2023-11-05T05:03:11.322Z,0.10
2023-11-05T05:05:37.928Z,0.10
2023-11-05T05:08:04.651Z,0.10
2023-11-05T05:10:31.234Z,0.20
2023-11-05T05:12:57.808Z,0.10
2023-11-05T05:15:24.393Z,0.17
2023-11-05T05:17:51.111Z,0.10
2023-11-05T05:20:17.732Z,0.10
2023-11-05T05:22:44.334Z,0.10
2023-11-05T05:25:10.943Z,0.10
2023-11-05T05:27:37.509Z,0.10
2023-11-05T05:30:04.340Z,0.17
2023-11-05T05:32:31.258Z,0.10
2023-11-05T05:34:57.863Z,0.20
2023-11-05T05:37:24.442Z,0.10
2023-11-05T05:39:51.026Z,0.10
2023-11-05T05:42:17.557Z,0.20
2023-11-05T05:44:45.016Z,0.20
2023-11-05T05:47:11.561Z,0.08
2023-11-05T05:49:38.173Z,0.10
2023-11-05T05:52:04.988Z,0.20
2023-11-05T05:54:31.894Z,0.20
2023-11-05T05:56:58.426Z,0.10
2023-11-05T05:59:24.986Z,0.10
2023-11-05T06:01:51.888Z,0.10
2023-11-05T06:04:18.547Z,0.10
2023-11-05T06:06:45.093Z,0.20
2023-11-05T06:09:13.045Z,0.10
2023-11-05T06:11:39.760Z,0.10
2023-11-05T06:14:06.300Z,0.10
2023-11-05T06:16:32.853Z,0.10
2023-11-05T06:18:59.529Z,0.10
2023-11-05T06:21:26.326Z,0.10
2023-11-05T06:23:52.851Z,0.10
2023-11-05T06:26:19.547Z,0.13
2023-11-05T06:28:46.175Z,0.10
2023-11-05T06:31:12.835Z,0.10
2023-11-05T06:33:39.556Z,0.10
2023-11-05T06:36:06.460Z,0.10
2023-11-05T06:38:33.147Z,0.10
2023-11-05T06:40:59.817Z,0.10
2023-11-05T06:43:26.432Z,0.15
2023-11-05T06:45:53.004Z,0.05
2023-11-05T06:48:20.031Z,0.13
2023-11-05T06:50:47.472Z,0.10
2023-11-05T06:53:14.111Z,0.10
2023-11-05T06:55:40.650Z,0.10
2023-11-05T06:58:07.276Z,0.17
2023-11-05T07:00:33.833Z,0.10
2023-11-05T07:03:00.774Z,0.10
2023-11-05T07:05:28.036Z,0.10
2023-11-05T07:07:55.749Z,0.10
2023-11-05T07:10:22.466Z,0.10
2023-11-05T07:12:49.049Z,0.10
2023-11-05T07:15:16.465Z,0.10
2023-11-05T07:17:43.121Z,0.17
2023-11-05T07:20:13.215Z,0.15
2023-11-05T07:22:42.161Z,0.10
2023-11-05T07:25:09.000Z,0.15
2023-11-05T07:27:37.315Z,0.10
2023-11-05T07:30:04.252Z,0.10
2023-11-05T07:32:31.115Z,0.10
2023-11-05T07:34:58.401Z,0.10
2023-11-05T07:37:28.361Z,0.10
2023-11-05T07:39:55.291Z,0.10
2023-11-05T07:42:21.920Z,0.10
2023-11-05T07:44:48.498Z,0.10
2023-11-05T07:47:15.892Z,0.10
2023-11-05T07:49:42.558Z,0.10
2023-11-05T07:52:09.326Z,0.10
2023-11-05T07:54:35.909Z,0.20
2023-11-05T07:57:03.536Z,0.10
2023-11-05T07:59:31.045Z,0.10
2023-11-05T08:01:58.570Z,0.10
2023-11-05T08:04:25.795Z,0.10
2023-11-05T08:06:54.357Z,0.20
2023-11-05T08:09:23.809Z,0.17
2023-11-05T08:11:51.037Z,0.00
2023-11-05T08:14:17.583Z,0.22
2023-11-05T08:16:44.189Z,0.10
2023-11-05T08:19:10.758Z,0.00
2023-11-05T08:21:37.525Z,0.10
2023-11-05T08:24:04.159Z,0.20
2023-11-05T08:26:30.722Z,0.10
2023-11-05T08:28:57.393Z,0.10
2023-11-05T08:31:24.609Z,0.10
2023-11-05T08:33:51.480Z,0.10
2023-11-05T08:36:18.041Z,0.10
2023-11-05T08:38:44.597Z,0.10
2023-11-05T08:41:11.419Z,0.10
2023-11-05T08:43:38.053Z,0.20
2023-11-05T08:46:05.192Z,0.10
2023-11-05T08:48:32.665Z,0.15
2023-11-05T08:50:59.249Z,0.10
2023-11-05T08:53:25.799Z,0.00
2023-11-05T08:55:52.454Z,0.20
2023-11-05T08:58:19.133Z,0.13
2023-11-05T09:00:45.864Z,0.10
2023-11-05T09:03:12.804Z,0.10
2023-11-05T09:05:40.138Z,0.10
2023-11-05T09:08:09.461Z,0.10
2023-11-05T09:10:36.317Z,0.00
2023-11-05T09:13:02.861Z,0.10
2023-11-05T09:15:29.607Z,0.20
2023-11-05T09:17:56.703Z,0.20
2023-11-05T09:20:23.420Z,0.10
2023-11-05T09:22:50.441Z,0.10
2023-11-05T09:25:18.872Z,0.10
2023-11-05T09:27:45.813Z,0.10
2023-11-05T09:30:12.555Z,0.15
2023-11-05T09:32:40.074Z,0.10
2023-11-05T09:35:08.058Z,0.08
2023-11-05T09:37:35.551Z,0.10
2023-11-05T09:40:02.216Z,0.10
2023-11-05T09:42:31.823Z,0.10
2023-11-05T09:44:59.864Z,0.20
2023-11-05T09:47:26.589Z,0.10
2023-11-05T09:49:53.165Z,0.10
2023-11-05T09:52:21.925Z,0.10
2023-11-05T09:54:49.043Z,0.05
2023-11-05T09:57:15.637Z,0.10
2023-11-05T09:59:49.355Z,0.10
2023-11-05T10:02:16.167Z,0.10
2023-11-05T10:04:42.977Z,0.20
2023-11-05T10:07:12.398Z,0.20
2023-11-05T10:09:39.897Z,0.10
2023-11-05T10:12:06.559Z,0.10
2023-11-05T10:14:33.334Z,0.20
2023-11-05T10:17:01.851Z,0.10
2023-11-05T10:19:28.432Z,0.10
2023-11-05T10:21:55.080Z,0.20
2023-11-05T10:24:45.669Z,0.13
2023-11-05T10:27:12.736Z,0.20
2023-11-05T10:29:39.317Z,0.10
2023-11-05T10:32:06.971Z,0.10
2023-11-05T10:34:33.693Z,0.22
2023-11-05T10:37:00.259Z,0.20
2023-11-05T10:39:27.751Z,0.20
2023-11-05T10:41:54.392Z,0.20
2023-11-05T10:44:22.058Z,0.00
2023-11-05T10:46:49.854Z,0.20
2023-11-05T10:49:16.611Z,0.10
2023-11-05T10:51:43.273Z,0.13
2023-11-05T10:54:09.949Z,0.20
2023-11-05T10:56:43.428Z,0.20
2023-11-05T10:59:11.191Z,0.10
2023-11-05T11:01:38.198Z,0.10
2023-11-05T11:04:12.061Z,0.10
2023-11-05T11:06:40.375Z,0.20
2023-11-05T11:09:08.770Z,0.10
2023-11-05T11:11:35.786Z,0.17
2023-11-05T11:14:02.895Z,0.10
2023-11-05T11:16:30.755Z,0.20
2023-11-05T11:18:58.190Z,0.15
2023-11-05T11:21:25.493Z,0.20
2023-11-05T11:23:52.422Z,0.20
2023-11-05T11:26:28.386Z,0.10
2023-11-05T11:28:58.463Z,0.20
2023-11-05T11:31:26.720Z,0.10
2023-11-05T11:33:53.645Z,0.17
2023-11-05T11:36:20.527Z,0.20
2023-11-05T11:38:47.712Z,0.10
2023-11-05T11:41:14.302Z,0.10
2023-11-05T11:43:40.976Z,0.20
2023-11-05T11:46:07.825Z,0.13
2023-11-05T11:48:34.432Z,0.32
2023-11-05T11:51:04.255Z,0.20
2023-11-05T11:53:40.189Z,0.20
2023-11-05T11:56:07.235Z,0.15
2023-11-05T11:58:41.201Z,0.17
2023-11-05T12:01:16.338Z,0.30
2023-11-05T12:03:44.142Z,0.20
2023-11-05T12:06:10.994Z,0.15
2023-11-05T12:08:37.652Z,0.15
2023-11-05T12:11:06.340Z,0.20
2023-11-05T12:13:33.025Z,0.20
2023-11-05T12:15:59.636Z,0.10
2023-11-05T12:18:26.646Z,0.20
2023-11-05T12:20:53.431Z,0.20
2023-11-05T12:23:20.078Z,0.20
2023-11-05T12:26:13.049Z,0.10
2023-11-05T12:28:40.352Z,0.30
2023-11-05T12:31:07.583Z,0.20
2023-11-05T12:33:34.862Z,0.20
2023-11-05T12:36:01.738Z,0.30
2023-11-05T12:38:28.380Z,0.10
2023-11-05T12:40:55.174Z,0.10
2023-11-05T12:43:25.241Z,0.20
2023-11-05T12:45:55.782Z,0.20
2023-11-05T12:48:30.280Z,0.10
2023-11-05T12:50:58.872Z,0.32
2023-11-05T12:53:25.410Z,0.20
2023-11-05T12:55:58.331Z,0.13
2023-11-05T12:58:25.506Z,0.15
2023-11-05T13:00:52.385Z,0.20
2023-11-05T13:03:19.311Z,0.30
2023-11-05T13:05:46.426Z,0.20
2023-11-05T13:08:13.042Z,0.10
2023-11-05T13:10:39.785Z,0.25
2023-11-05T13:13:06.521Z,0.20
2023-11-05T13:15:33.994Z,0.20
2023-11-05T13:18:01.025Z,0.20
2023-11-05T13:20:27.672Z,0.20
2023-11-05T13:22:54.251Z,0.20
2023-11-05T13:25:20.842Z,0.10
2023-11-05T13:27:47.397Z,0.20
2023-11-05T13:30:17.159Z,0.17
2023-11-05T13:32:47.302Z,0.20
2023-11-05T13:35:18.403Z,0.20
2023-11-05T13:37:45.854Z,0.30
2023-11-05T13:40:12.871Z,0.25
2023-11-05T13:42:40.123Z,0.25
2023-11-05T13:45:08.607Z,0.20
2023-11-05T13:47:35.401Z,0.20
2023-11-05T13:50:02.209Z,0.22
2023-11-05T13:52:28.818Z,0.30
2023-11-05T13:54:55.379Z,0.20
2023-11-05T13:57:22.109Z,0.17
2023-11-05T13:59:51.588Z,0.13
2023-11-05T14:02:18.704Z,0.20
2023-11-05T14:04:45.371Z,0.20
2023-11-05T14:07:11.980Z,0.28
2023-11-05T14:09:38.546Z,0.40
2023-11-05T14:12:09.526Z,0.20
2023-11-05T14:14:36.678Z,0.20
2023-11-05T14:17:04.484Z,0.30
2023-11-05T14:19:31.247Z,0.28
2023-11-05T14:21:59.351Z,0.20
2023-11-05T14:24:26.396Z,0.20
2023-11-05T14:26:53.132Z,0.30
2023-11-05T14:29:20.769Z,0.20
2023-11-05T14:31:47.571Z,0.30
2023-11-05T14:34:14.146Z,0.22
2023-11-05T14:36:40.694Z,0.20
2023-11-05T14:39:10.366Z,0.10
2023-11-05T14:41:38.787Z,0.30
2023-11-05T14:44:06.981Z,0.30
2023-11-05T14:46:34.039Z,0.20
2023-11-05T14:49:02.028Z,0.30
2023-11-05T14:51:29.018Z,0.10
2023-11-05T14:53:55.716Z,0.20
2023-11-05T14:56:24.090Z,0.20
2023-11-05T14:58:50.857Z,0.20
2023-11-05T15:01:19.129Z,0.15
2023-11-05T15:03:51.130Z,0.20
2023-11-05T15:06:22.418Z,0.10
2023-11-05T15:08:49.065Z,0.20
2023-11-05T15:11:15.590Z,0.25
2023-11-05T15:13:42.473Z,0.20
2023-11-05T15:16:09.565Z,0.20
2023-11-05T15:18:39.196Z,0.10
2023-11-05T15:21:07.022Z,0.20
2023-11-05T15:23:33.709Z,0.20
2023-11-05T15:26:00.392Z,0.25
2023-11-05T15:28:28.721Z,0.30
2023-11-05T15:30:56.533Z,0.20
2023-11-05T15:33:26.801Z,0.20
2023-11-05T15:35:54.263Z,0.30
2023-11-05T15:38:21.642Z,0.20
2023-11-05T15:40:48.543Z,0.20
2023-11-05T15:43:17.629Z,0.30
2023-11-05T15:45:45.329Z,0.25
2023-11-05T15:48:12.366Z,0.20
2023-11-05T15:50:39.251Z,0.20
2023-11-05T15:53:05.896Z,0.25
2023-11-05T15:55:32.553Z,0.30
2023-11-05T15:57:59.229Z,0.25
2023-11-05T16:00:26.588Z,0.28
2023-11-05T16:02:54.206Z,0.30
2023-11-05T16:05:20.969Z,0.20
2023-11-05T16:07:48.902Z,0.15
2023-11-05T16:10:15.492Z,0.13
2023-11-05T16:12:42.077Z,0.20
2023-11-05T16:15:11.074Z,0.28
2023-11-05T16:17:37.670Z,0.30
2023-11-05T16:20:06.612Z,0.25
2023-11-05T16:22:33.666Z,0.22
2023-11-05T16:25:01.087Z,0.20
2023-11-05T16:27:27.669Z,0.25
2023-11-05T16:29:55.083Z,0.13
2023-11-05T16:32:22.120Z,0.25
2023-11-05T16:34:49.088Z,0.30
2023-11-05T16:37:15.898Z,0.10
2023-11-05T16:39:44.172Z,0.17
2023-11-05T16:42:11.119Z,0.10
2023-11-05T16:44:37.776Z,0.13
2023-11-05T16:47:05.047Z,0.20
2023-11-05T16:49:32.527Z,0.20
2023-11-05T16:51:59.102Z,0.20
2023-11-05T16:54:25.736Z,0.10
2023-11-05T16:56:53.189Z,0.10
2023-11-05T16:59:20.332Z,0.10
2023-11-05T17:01:47.511Z,0.10
2023-11-05T17:04:14.148Z,0.10
2023-11-05T17:06:41.418Z,0.10
2023-11-05T17:09:10.855Z,0.10
2023-11-05T17:11:42.639Z,0.15
2023-11-05T17:14:13.003Z,0.10
2023-11-05T17:16:44.567Z,0.20
2023-11-05T17:19:12.372Z,0.13
2023-11-05T17:21:39.376Z,0.10
2023-11-05T17:24:06.554Z,0.10
2023-11-05T17:26:36.454Z,0.20
2023-11-05T17:29:03.427Z,0.10
2023-11-05T17:31:30.484Z,0.10
2023-11-05T17:33:57.560Z,0.10
2023-11-05T17:36:24.230Z,0.10
2023-11-05T17:38:51.334Z,0.10
2023-11-05T17:41:19.247Z,0.10
2023-11-05T17:43:48.137Z,0.10
2023-11-05T17:46:14.867Z,0.10
2023-11-05T17:48:41.489Z,0.20
2023-11-05T17:51:08.308Z,0.10
2023-11-05T17:53:34.938Z,0.10
2023-11-05T17:56:01.491Z,0.10
2023-11-05T17:58:28.182Z,0.10
2023-11-05T18:00:54.805Z,0.08
2023-11-05T18:03:21.498Z,0.10
2023-11-05T18:05:48.555Z,0.10
2023-11-05T18:08:15.333Z,0.10
2023-11-05T18:10:50.309Z,0.10
2023-11-05T18:13:19.946Z,0.10
2023-11-05T18:15:47.230Z,0.10
2023-11-05T18:18:13.974Z,0.00
2023-11-05T18:20:40.554Z,0.10
2023-11-05T18:23:08.114Z,0.20
2023-11-05T18:25:34.717Z,0.00
2023-11-05T18:28:01.249Z,0.10
2023-11-05T18:30:27.903Z,0.10
2023-11-05T18:32:54.680Z,0.10
2023-11-05T18:35:21.244Z,0.10
2023-11-05T18:37:48.257Z,0.00
2023-11-05T18:40:14.936Z,0.10
2023-11-05T18:42:41.510Z,0.10
2023-11-05T18:45:08.491Z,0.10
2023-11-05T18:47:35.238Z,0.10
2023-11-05T18:50:02.308Z,0.03
2023-11-05T18:52:29.117Z,0.20
2023-11-05T18:54:55.822Z,0.20
2023-11-05T18:57:22.410Z,0.05
2023-11-05T18:59:48.992Z,0.10
2023-11-05T19:02:15.865Z,0.10
2023-11-05T19:04:42.676Z,0.10
2023-11-05T19:07:09.737Z,0.00
2023-11-05T19:09:36.363Z,0.10
2023-11-05T19:12:03.177Z,0.05
2023-11-05T19:14:29.892Z,0.10
2023-11-05T19:16:56.541Z,0.10
2023-11-05T19:19:23.114Z,0.10
2023-11-05T19:21:49.619Z,0.20
2023-11-05T19:24:16.264Z,0.17
2023-11-05T19:26:43.732Z,0.10
2023-11-05T19:29:10.330Z,0.10
2023-11-05T19:31:36.943Z,0.00
2023-11-05T19:34:03.978Z,0.15
2023-11-05T19:36:30.572Z,0.10
2023-11-05T19:38:59.011Z,0.20
2023-11-05T19:41:32.332Z,0.00
2023-11-05T19:43:59.688Z,0.10
2023-11-05T19:46:26.351Z,0.10
2023-11-05T19:48:53.036Z,0.10
2023-11-05T19:51:19.606Z,0.20
2023-11-05T19:53:46.155Z,0.10
2023-11-05T19:56:25.492Z,0.10
2023-11-05T19:58:53.196Z,0.10
2023-11-05T20:01:19.919Z,0.20
2023-11-05T20:03:47.016Z,0.10
2023-11-05T20:06:20.288Z,0.10
2023-11-05T20:08:51.137Z,0.20
2023-11-05T20:11:17.954Z,0.20
2023-11-05T20:13:45.731Z,0.10
2023-11-05T20:16:12.632Z,0.20
2023-11-05T20:18:40.075Z,0.10
2023-11-05T20:21:09.137Z,0.10
2023-11-05T20:23:36.504Z,0.10
2023-11-05T20:26:03.787Z,0.17
2023-11-05T20:28:32.638Z,0.13
2023-11-05T20:31:03.196Z,0.17
2023-11-05T20:33:29.828Z,0.15
2023-11-05T20:35:56.408Z,0.13
2023-11-05T20:38:23.053Z,0.10
2023-11-05T20:40:49.621Z,0.15
2023-11-05T20:43:16.372Z,0.20
2023-11-05T20:45:43.005Z,0.10
2023-11-05T20:48:09.808Z,0.20
2023-11-05T20:50:36.905Z,0.20
2023-11-05T20:53:03.507Z,0.25
2023-11-05T20:55:35.054Z,0.22
2023-11-05T20:58:03.771Z,0.10
2023-11-05T21:00:31.949Z,0.15
2023-11-05T21:02:59.186Z,0.10
2023-11-05T21:05:25.861Z,0.10
2023-11-05T21:07:52.649Z,0.10
2023-11-05T21:10:19.398Z,0.10
2023-11-05T21:12:45.984Z,0.10
2023-11-05T21:15:12.874Z,0.20
2023-11-05T21:17:39.490Z,0.10
2023-11-05T21:20:06.556Z,0.20
2023-11-05T21:22:33.358Z,0.10
2023-11-05T21:24:59.892Z,0.28
2023-11-05T21:27:26.429Z,0.22
2023-11-05T21:29:53.565Z,0.20
2023-11-05T21:32:20.161Z,0.30
2023-11-05T21:34:47.469Z,0.20
2023-11-05T21:37:14.065Z,0.10
2023-11-05T21:39:40.833Z,0.20
2023-11-05T21:42:08.206Z,0.10
2023-11-05T21:44:35.547Z,0.15
2023-11-05T21:47:03.214Z,0.40
2023-11-05T21:49:29.856Z,0.20
2023-11-05T21:51:56.393Z,0.17
2023-11-05T21:54:22.932Z,0.13
2023-11-05T21:56:49.487Z,0.20
2023-11-05T21:59:16.174Z,0.10
2023-11-05T22:01:42.978Z,0.17
2023-11-05T22:04:09.860Z,0.10
2023-11-05T22:06:37.199Z,0.10
2023-11-05T22:09:03.764Z,0.10
2023-11-05T22:11:30.332Z,0.10
2023-11-05T22:13:56.945Z,0.20
2023-11-05T22:16:24.396Z,0.20
2023-11-05T22:18:51.690Z,0.10
2023-11-05T22:21:18.256Z,0.15
2023-11-05T22:23:44.898Z,0.10
2023-11-05T22:26:12.276Z,0.13
2023-11-05T22:28:38.886Z,0.20
2023-11-05T22:31:05.626Z,0.20
2023-11-05T22:33:32.576Z,0.13
2023-11-05T22:35:59.163Z,0.20
2023-11-05T22:38:26.210Z,0.13
2023-11-05T22:40:54.267Z,0.20
2023-11-05T22:43:20.805Z,0.20
2023-11-05T22:45:47.353Z,0.20
2023-11-05T22:48:14.073Z,0.13
2023-11-05T22:50:40.736Z,0.20
2023-11-05T22:53:07.334Z,0.20
2023-11-05T22:55:33.861Z,0.32
2023-11-05T22:58:00.433Z,0.20
2023-11-05T23:00:32.175Z,0.10
2023-11-05T23:02:59.347Z,0.20
2023-11-05T23:05:26.629Z,0.08
2023-11-05T23:07:53.356Z,0.20
2023-11-05T23:10:19.984Z,0.20
2023-11-05T23:12:46.852Z,0.20
2023-11-05T23:15:13.479Z,0.20
2023-11-05T23:17:40.753Z,0.20
2023-11-05T23:20:07.797Z,0.20
2023-11-05T23:22:34.345Z,0.20
2023-11-05T23:25:00.896Z,0.20
2023-11-05T23:27:27.497Z,0.20
2023-11-05T23:29:54.058Z,0.22
2023-11-05T23:32:21.292Z,0.10
2023-11-05T23:34:49.358Z,0.20
2023-11-05T23:37:15.898Z,0.20
2023-11-05T23:39:45.542Z,0.20
2023-11-05T23:42:12.175Z,0.20
2023-11-05T23:44:41.113Z,0.20
2023-11-05T23:47:08.203Z,0.20
2023-11-05T23:49:34.758Z,0.20
2023-11-05T23:52:01.580Z,0.30
2023-11-05T23:54:28.176Z,0.20
2023-11-05T23:56:54.671Z,0.20
2023-11-05T23:59:21.445Z,0.20
